sensor_id;sensor_type;location;lat;lon;timestamp;P1;durP1;ratioP1;P2;durP2;ratioP2
18838;SDS011;9548;56.920;14.804;2022-08-16T00:00:27;7.53;;;4.80;;
18838;SDS011;9548;56.920;14.804;2022-08-16T00:02:58;8.57;;;5.10;;
18838;SDS011;9548;56.920;14.804;2022-08-16T00:05:27;6.90;;;5.50;;
18838;SDS011;9548;56.920;14.804;2022-08-16T00:07:55;9.15;;;5.47;;
18838;SDS011;9548;56.920;14.804;2022-08-16T00:10:23;9.73;;;6.00;;
18838;SDS011;9548;56.920;14.804;2022-08-16T00:12:51;7.53;;;5.47;;
18838;SDS011;9548;56.920;14.804;2022-08-16T00:15:21;7.85;;;5.75;;
18838;SDS011;9548;56.920;14.804;2022-08-16T00:17:50;8.70;;;6.20;;
18838;SDS011;9548;56.920;14.804;2022-08-16T00:20:17;11.10;;;5.85;;
18838;SDS011;9548;56.920;14.804;2022-08-16T00:22:47;10.93;;;6.18;;
18838;SDS011;9548;56.920;14.804;2022-08-16T00:25:15;9.75;;;6.50;;
18838;SDS011;9548;56.920;14.804;2022-08-16T00:27:43;14.25;;;6.65;;
18838;SDS011;9548;56.920;14.804;2022-08-16T00:30:11;10.60;;;7.13;;
18838;SDS011;9548;56.920;14.804;2022-08-16T00:32:40;11.07;;;7.20;;
18838;SDS011;9548;56.920;14.804;2022-08-16T00:35:11;13.27;;;7.53;;
18838;SDS011;9548;56.920;14.804;2022-08-16T00:37:39;19.05;;;7.65;;
18838;SDS011;9548;56.920;14.804;2022-08-16T00:40:08;21.27;;;9.65;;
18838;SDS011;9548;56.920;14.804;2022-08-16T00:42:36;46.53;;;10.65;;
18838;SDS011;9548;56.920;14.804;2022-08-16T00:45:04;15.85;;;9.80;;
18838;SDS011;9548;56.920;14.804;2022-08-16T00:47:36;12.60;;;8.85;;
18838;SDS011;9548;56.920;14.804;2022-08-16T00:50:08;17.10;;;8.73;;
18838;SDS011;9548;56.920;14.804;2022-08-16T00:52:36;11.98;;;8.23;;
18838;SDS011;9548;56.920;14.804;2022-08-16T00:55:03;13.00;;;8.20;;
18838;SDS011;9548;56.920;14.804;2022-08-16T00:57:32;12.32;;;7.82;;
18838;SDS011;9548;56.920;14.804;2022-08-16T01:00:03;12.40;;;8.40;;
18838;SDS011;9548;56.920;14.804;2022-08-16T01:02:30;13.60;;;8.85;;
18838;SDS011;9548;56.920;14.804;2022-08-16T01:04:58;14.18;;;8.68;;
18838;SDS011;9548;56.920;14.804;2022-08-16T01:07:25;17.27;;;10.00;;
18838;SDS011;9548;56.920;14.804;2022-08-16T01:09:53;14.35;;;8.75;;
18838;SDS011;9548;56.920;14.804;2022-08-16T01:12:20;16.98;;;8.98;;
18838;SDS011;9548;56.920;14.804;2022-08-16T01:14:49;13.95;;;9.18;;
18838;SDS011;9548;56.920;14.804;2022-08-16T01:17:19;15.18;;;9.25;;
18838;SDS011;9548;56.920;14.804;2022-08-16T01:19:49;18.25;;;9.35;;
18838;SDS011;9548;56.920;14.804;2022-08-16T01:22:25;15.88;;;9.18;;
18838;SDS011;9548;56.920;14.804;2022-08-16T01:25:00;16.88;;;8.43;;
18838;SDS011;9548;56.920;14.804;2022-08-16T01:27:33;14.02;;;7.72;;
18838;SDS011;9548;56.920;14.804;2022-08-16T01:30:05;12.65;;;7.90;;
18838;SDS011;9548;56.920;14.804;2022-08-16T01:32:35;11.93;;;7.80;;
18838;SDS011;9548;56.920;14.804;2022-08-16T01:35:07;12.80;;;7.15;;
18838;SDS011;9548;56.920;14.804;2022-08-16T01:37:40;10.07;;;6.32;;
18838;SDS011;9548;56.920;14.804;2022-08-16T01:40:10;6.97;;;5.03;;
18838;SDS011;9548;56.920;14.804;2022-08-16T01:42:39;6.55;;;4.97;;
18838;SDS011;9548;56.920;14.804;2022-08-16T01:45:07;7.70;;;4.85;;
18838;SDS011;9548;56.920;14.804;2022-08-16T01:47:34;5.80;;;4.80;;
18838;SDS011;9548;56.920;14.804;2022-08-16T01:50:04;10.15;;;4.53;;
18838;SDS011;9548;56.920;14.804;2022-08-16T01:52:33;9.82;;;4.97;;
18838;SDS011;9548;56.920;14.804;2022-08-16T01:55:00;7.60;;;4.70;;
18838;SDS011;9548;56.920;14.804;2022-08-16T01:57:30;7.60;;;5.00;;
18838;SDS011;9548;56.920;14.804;2022-08-16T01:59:58;11.05;;;5.03;;
18838;SDS011;9548;56.920;14.804;2022-08-16T02:02:26;7.00;;;5.40;;
18838;SDS011;9548;56.920;14.804;2022-08-16T02:04:53;10.20;;;6.15;;
18838;SDS011;9548;56.920;14.804;2022-08-16T02:07:21;10.52;;;6.60;;
18838;SDS011;9548;56.920;14.804;2022-08-16T02:09:48;10.60;;;6.10;;
18838;SDS011;9548;56.920;14.804;2022-08-16T02:12:15;10.35;;;6.63;;
18838;SDS011;9548;56.920;14.804;2022-08-16T02:14:44;9.73;;;6.82;;
18838;SDS011;9548;56.920;14.804;2022-08-16T02:17:11;14.85;;;7.72;;
18838;SDS011;9548;56.920;14.804;2022-08-16T02:19:39;12.18;;;7.85;;
18838;SDS011;9548;56.920;14.804;2022-08-16T02:22:08;12.10;;;7.90;;
18838;SDS011;9548;56.920;14.804;2022-08-16T02:24:39;12.45;;;8.13;;
18838;SDS011;9548;56.920;14.804;2022-08-16T02:27:06;13.57;;;8.13;;
18838;SDS011;9548;56.920;14.804;2022-08-16T02:29:33;14.13;;;8.57;;
18838;SDS011;9548;56.920;14.804;2022-08-16T02:32:02;11.75;;;8.52;;
18838;SDS011;9548;56.920;14.804;2022-08-16T02:34:29;14.40;;;8.55;;
18838;SDS011;9548;56.920;14.804;2022-08-16T02:36:56;16.42;;;8.75;;
18838;SDS011;9548;56.920;14.804;2022-08-16T02:39:24;13.90;;;9.80;;
18838;SDS011;9548;56.920;14.804;2022-08-16T02:41:51;15.35;;;9.85;;
18838;SDS011;9548;56.920;14.804;2022-08-16T02:44:18;16.70;;;10.55;;
18838;SDS011;9548;56.920;14.804;2022-08-16T02:46:46;18.25;;;10.52;;
18838;SDS011;9548;56.920;14.804;2022-08-16T02:49:14;15.95;;;10.68;;
18838;SDS011;9548;56.920;14.804;2022-08-16T02:51:41;16.08;;;10.40;;
18838;SDS011;9548;56.920;14.804;2022-08-16T02:54:09;16.05;;;11.00;;
18838;SDS011;9548;56.920;14.804;2022-08-16T02:56:38;20.08;;;11.93;;
18838;SDS011;9548;56.920;14.804;2022-08-16T02:59:05;19.45;;;12.57;;
18838;SDS011;9548;56.920;14.804;2022-08-16T03:01:32;17.98;;;12.63;;
18838;SDS011;9548;56.920;14.804;2022-08-16T03:04:00;25.63;;;13.35;;
18838;SDS011;9548;56.920;14.804;2022-08-16T03:06:29;23.33;;;14.60;;
18838;SDS011;9548;56.920;14.804;2022-08-16T03:08:57;23.90;;;14.38;;
18838;SDS011;9548;56.920;14.804;2022-08-16T03:11:25;27.83;;;16.00;;
18838;SDS011;9548;56.920;14.804;2022-08-16T03:13:53;32.08;;;17.20;;
18838;SDS011;9548;56.920;14.804;2022-08-16T03:16:21;29.73;;;17.00;;
18838;SDS011;9548;56.920;14.804;2022-08-16T03:18:48;32.35;;;17.88;;
18838;SDS011;9548;56.920;14.804;2022-08-16T03:21:15;31.77;;;18.73;;
18838;SDS011;9548;56.920;14.804;2022-08-16T03:23:47;37.70;;;19.42;;
18838;SDS011;9548;56.920;14.804;2022-08-16T03:26:14;31.05;;;18.58;;
18838;SDS011;9548;56.920;14.804;2022-08-16T03:28:41;35.00;;;18.92;;
18838;SDS011;9548;56.920;14.804;2022-08-16T03:31:08;32.08;;;19.42;;
18838;SDS011;9548;56.920;14.804;2022-08-16T03:33:35;34.28;;;20.33;;
18838;SDS011;9548;56.920;14.804;2022-08-16T03:36:03;40.53;;;20.50;;
18838;SDS011;9548;56.920;14.804;2022-08-16T03:38:31;36.25;;;20.85;;
18838;SDS011;9548;56.920;14.804;2022-08-16T03:41:00;31.50;;;20.02;;
18838;SDS011;9548;56.920;14.804;2022-08-16T03:43:29;32.92;;;20.02;;
18838;SDS011;9548;56.920;14.804;2022-08-16T03:45:57;36.28;;;22.35;;
18838;SDS011;9548;56.920;14.804;2022-08-16T03:48:25;35.13;;;21.38;;
18838;SDS011;9548;56.920;14.804;2022-08-16T03:50:53;38.67;;;22.08;;
18838;SDS011;9548;56.920;14.804;2022-08-16T03:53:20;33.85;;;21.63;;
18838;SDS011;9548;56.920;14.804;2022-08-16T03:55:47;37.78;;;23.33;;
18838;SDS011;9548;56.920;14.804;2022-08-16T03:58:16;38.63;;;22.02;;
18838;SDS011;9548;56.920;14.804;2022-08-16T04:00:43;36.47;;;21.38;;
18838;SDS011;9548;56.920;14.804;2022-08-16T04:03:10;40.22;;;22.10;;
18838;SDS011;9548;56.920;14.804;2022-08-16T04:05:39;39.97;;;22.77;;
18838;SDS011;9548;56.920;14.804;2022-08-16T04:08:07;38.15;;;23.20;;
18838;SDS011;9548;56.920;14.804;2022-08-16T04:10:34;38.72;;;22.58;;
18838;SDS011;9548;56.920;14.804;2022-08-16T04:13:01;39.80;;;22.15;;
18838;SDS011;9548;56.920;14.804;2022-08-16T04:15:29;36.15;;;21.35;;
18838;SDS011;9548;56.920;14.804;2022-08-16T04:17:57;42.45;;;22.38;;
18838;SDS011;9548;56.920;14.804;2022-08-16T04:20:25;36.03;;;21.27;;
18838;SDS011;9548;56.920;14.804;2022-08-16T04:22:53;37.10;;;21.38;;
18838;SDS011;9548;56.920;14.804;2022-08-16T04:25:20;37.40;;;20.83;;
18838;SDS011;9548;56.920;14.804;2022-08-16T04:27:47;39.17;;;21.02;;
18838;SDS011;9548;56.920;14.804;2022-08-16T04:30:16;33.80;;;20.98;;
18838;SDS011;9548;56.920;14.804;2022-08-16T04:32:47;34.45;;;21.17;;
18838;SDS011;9548;56.920;14.804;2022-08-16T04:35:15;35.72;;;20.58;;
18838;SDS011;9548;56.920;14.804;2022-08-16T04:37:44;33.65;;;21.15;;
18838;SDS011;9548;56.920;14.804;2022-08-16T04:40:12;31.10;;;20.58;;
18838;SDS011;9548;56.920;14.804;2022-08-16T04:42:41;29.73;;;20.65;;
18838;SDS011;9548;56.920;14.804;2022-08-16T04:45:10;38.10;;;22.48;;
18838;SDS011;9548;56.920;14.804;2022-08-16T04:47:38;28.63;;;19.98;;
18838;SDS011;9548;56.920;14.804;2022-08-16T04:50:09;32.75;;;20.67;;
18838;SDS011;9548;56.920;14.804;2022-08-16T04:52:37;35.53;;;21.45;;
18838;SDS011;9548;56.920;14.804;2022-08-16T04:55:06;36.08;;;20.42;;
18838;SDS011;9548;56.920;14.804;2022-08-16T04:57:34;31.10;;;19.60;;
18838;SDS011;9548;56.920;14.804;2022-08-16T05:00:02;32.25;;;20.50;;
18838;SDS011;9548;56.920;14.804;2022-08-16T05:02:32;32.65;;;21.02;;
18838;SDS011;9548;56.920;14.804;2022-08-16T05:04:59;32.08;;;19.02;;
18838;SDS011;9548;56.920;14.804;2022-08-16T05:07:27;29.67;;;20.02;;
18838;SDS011;9548;56.920;14.804;2022-08-16T05:09:54;29.48;;;19.95;;
18838;SDS011;9548;56.920;14.804;2022-08-16T05:12:21;32.88;;;18.92;;
18838;SDS011;9548;56.920;14.804;2022-08-16T05:14:48;28.20;;;18.23;;
18838;SDS011;9548;56.920;14.804;2022-08-16T05:17:15;23.88;;;17.45;;
18838;SDS011;9548;56.920;14.804;2022-08-16T05:19:43;26.60;;;18.42;;
18838;SDS011;9548;56.920;14.804;2022-08-16T05:22:10;29.73;;;16.70;;
18838;SDS011;9548;56.920;14.804;2022-08-16T05:24:39;24.63;;;15.77;;
18838;SDS011;9548;56.920;14.804;2022-08-16T05:27:06;22.60;;;16.42;;
18838;SDS011;9548;56.920;14.804;2022-08-16T05:29:33;20.02;;;15.82;;
18838;SDS011;9548;56.920;14.804;2022-08-16T05:32:00;25.67;;;15.38;;
18838;SDS011;9548;56.920;14.804;2022-08-16T05:34:27;20.20;;;15.55;;
18838;SDS011;9548;56.920;14.804;2022-08-16T05:36:54;21.45;;;14.10;;
18838;SDS011;9548;56.920;14.804;2022-08-16T05:39:21;22.02;;;14.27;;
18838;SDS011;9548;56.920;14.804;2022-08-16T05:41:51;18.15;;;13.48;;
18838;SDS011;9548;56.920;14.804;2022-08-16T05:44:19;19.48;;;13.82;;
18838;SDS011;9548;56.920;14.804;2022-08-16T05:46:47;20.10;;;13.57;;
18838;SDS011;9548;56.920;14.804;2022-08-16T05:49:15;18.10;;;13.60;;
18838;SDS011;9548;56.920;14.804;2022-08-16T05:51:43;18.08;;;11.88;;
18838;SDS011;9548;56.920;14.804;2022-08-16T05:54:11;15.57;;;12.63;;
18838;SDS011;9548;56.920;14.804;2022-08-16T05:56:42;16.33;;;11.95;;
18838;SDS011;9548;56.920;14.804;2022-08-16T05:59:12;16.48;;;11.43;;
18838;SDS011;9548;56.920;14.804;2022-08-16T06:01:40;18.40;;;11.27;;
18838;SDS011;9548;56.920;14.804;2022-08-16T06:04:09;14.13;;;11.25;;
18838;SDS011;9548;56.920;14.804;2022-08-16T06:06:39;19.75;;;12.07;;
18838;SDS011;9548;56.920;14.804;2022-08-16T06:09:06;18.10;;;12.13;;
18838;SDS011;9548;56.920;14.804;2022-08-16T06:11:34;16.35;;;10.73;;
18838;SDS011;9548;56.920;14.804;2022-08-16T06:14:01;16.55;;;11.48;;
18838;SDS011;9548;56.920;14.804;2022-08-16T06:16:30;13.32;;;10.23;;
18838;SDS011;9548;56.920;14.804;2022-08-16T06:18:57;12.60;;;10.32;;
18838;SDS011;9548;56.920;14.804;2022-08-16T06:21:24;13.85;;;10.75;;
18838;SDS011;9548;56.920;14.804;2022-08-16T06:23:52;15.23;;;9.98;;
18838;SDS011;9548;56.920;14.804;2022-08-16T06:26:19;16.45;;;9.93;;
18838;SDS011;9548;56.920;14.804;2022-08-16T06:28:46;18.48;;;10.25;;
18838;SDS011;9548;56.920;14.804;2022-08-16T06:31:14;12.63;;;10.27;;
18838;SDS011;9548;56.920;14.804;2022-08-16T06:33:43;12.80;;;10.27;;
18838;SDS011;9548;56.920;14.804;2022-08-16T06:36:10;12.73;;;10.20;;
18838;SDS011;9548;56.920;14.804;2022-08-16T06:38:38;13.05;;;10.20;;
18838;SDS011;9548;56.920;14.804;2022-08-16T06:41:05;13.70;;;9.70;;
18838;SDS011;9548;56.920;14.804;2022-08-16T06:43:33;12.63;;;9.73;;
18838;SDS011;9548;56.920;14.804;2022-08-16T06:46:03;11.20;;;9.07;;
18838;SDS011;9548;56.920;14.804;2022-08-16T06:48:33;12.82;;;10.32;;
18838;SDS011;9548;56.920;14.804;2022-08-16T06:51:03;12.68;;;9.13;;
18838;SDS011;9548;56.920;14.804;2022-08-16T06:53:31;13.70;;;8.50;;
18838;SDS011;9548;56.920;14.804;2022-08-16T06:56:00;11.75;;;8.40;;
18838;SDS011;9548;56.920;14.804;2022-08-16T06:58:29;11.88;;;8.55;;
18838;SDS011;9548;56.920;14.804;2022-08-16T07:00:56;13.70;;;8.70;;
18838;SDS011;9548;56.920;14.804;2022-08-16T07:03:24;12.48;;;8.98;;
18838;SDS011;9548;56.920;14.804;2022-08-16T07:05:50;13.45;;;8.52;;
18838;SDS011;9548;56.920;14.804;2022-08-16T07:08:19;11.60;;;8.65;;
18838;SDS011;9548;56.920;14.804;2022-08-16T07:10:46;15.13;;;9.18;;
18838;SDS011;9548;56.920;14.804;2022-08-16T07:13:13;11.32;;;8.82;;
18838;SDS011;9548;56.920;14.804;2022-08-16T07:15:40;13.38;;;9.23;;
18838;SDS011;9548;56.920;14.804;2022-08-16T07:18:07;11.88;;;8.75;;
18838;SDS011;9548;56.920;14.804;2022-08-16T07:20:35;15.38;;;9.00;;
18838;SDS011;9548;56.920;14.804;2022-08-16T07:23:02;11.27;;;8.68;;
18838;SDS011;9548;56.920;14.804;2022-08-16T07:25:32;14.38;;;8.98;;
18838;SDS011;9548;56.920;14.804;2022-08-16T07:28:00;14.25;;;8.77;;
18838;SDS011;9548;56.920;14.804;2022-08-16T07:30:27;10.30;;;9.20;;
18838;SDS011;9548;56.920;14.804;2022-08-16T07:32:54;13.75;;;8.73;;
18838;SDS011;9548;56.920;14.804;2022-08-16T07:35:22;13.15;;;8.73;;
18838;SDS011;9548;56.920;14.804;2022-08-16T07:37:49;14.77;;;8.88;;
18838;SDS011;9548;56.920;14.804;2022-08-16T07:40:16;12.55;;;8.70;;
18838;SDS011;9548;56.920;14.804;2022-08-16T07:42:44;11.80;;;9.00;;
18838;SDS011;9548;56.920;14.804;2022-08-16T07:45:11;15.05;;;9.48;;
18838;SDS011;9548;56.920;14.804;2022-08-16T07:47:38;11.85;;;9.65;;
18838;SDS011;9548;56.920;14.804;2022-08-16T07:50:07;11.18;;;8.25;;
18838;SDS011;9548;56.920;14.804;2022-08-16T07:52:35;14.02;;;8.88;;
18838;SDS011;9548;56.920;14.804;2022-08-16T07:55:02;10.75;;;8.75;;
18838;SDS011;9548;56.920;14.804;2022-08-16T07:57:29;12.45;;;8.90;;
18838;SDS011;9548;56.920;14.804;2022-08-16T07:59:58;15.35;;;9.75;;
18838;SDS011;9548;56.920;14.804;2022-08-16T08:02:25;18.58;;;9.13;;
18838;SDS011;9548;56.920;14.804;2022-08-16T08:04:52;14.13;;;9.35;;
18838;SDS011;9548;56.920;14.804;2022-08-16T08:07:19;12.43;;;9.25;;
18838;SDS011;9548;56.920;14.804;2022-08-16T08:09:47;13.32;;;9.05;;
18838;SDS011;9548;56.920;14.804;2022-08-16T08:12:14;12.13;;;9.52;;
18838;SDS011;9548;56.920;14.804;2022-08-16T08:14:43;17.88;;;9.50;;
18838;SDS011;9548;56.920;14.804;2022-08-16T08:17:12;14.63;;;9.40;;
18838;SDS011;9548;56.920;14.804;2022-08-16T08:19:39;13.38;;;9.07;;
18838;SDS011;9548;56.920;14.804;2022-08-16T08:22:07;12.02;;;8.68;;
18838;SDS011;9548;56.920;14.804;2022-08-16T08:24:34;14.63;;;8.90;;
18838;SDS011;9548;56.920;14.804;2022-08-16T08:27:04;17.00;;;9.30;;
18838;SDS011;9548;56.920;14.804;2022-08-16T08:29:33;12.65;;;9.07;;
18838;SDS011;9548;56.920;14.804;2022-08-16T08:32:02;16.95;;;9.07;;
18838;SDS011;9548;56.920;14.804;2022-08-16T08:34:31;12.90;;;9.15;;
18838;SDS011;9548;56.920;14.804;2022-08-16T08:36:57;11.80;;;9.07;;
18838;SDS011;9548;56.920;14.804;2022-08-16T08:39:24;13.63;;;9.27;;
18838;SDS011;9548;56.920;14.804;2022-08-16T08:41:51;16.95;;;9.85;;
18838;SDS011;9548;56.920;14.804;2022-08-16T08:44:19;15.48;;;9.02;;
18838;SDS011;9548;56.920;14.804;2022-08-16T08:46:46;13.00;;;9.95;;
18838;SDS011;9548;56.920;14.804;2022-08-16T08:49:13;12.50;;;9.80;;
18838;SDS011;9548;56.920;14.804;2022-08-16T08:51:41;20.27;;;10.65;;
18838;SDS011;9548;56.920;14.804;2022-08-16T08:54:09;15.27;;;10.60;;
18838;SDS011;9548;56.920;14.804;2022-08-16T08:56:38;17.60;;;10.25;;
18838;SDS011;9548;56.920;14.804;2022-08-16T08:59:05;15.50;;;10.15;;
18838;SDS011;9548;56.920;14.804;2022-08-16T09:01:34;14.00;;;10.73;;
18838;SDS011;9548;56.920;14.804;2022-08-16T09:04:03;16.27;;;10.27;;
18838;SDS011;9548;56.920;14.804;2022-08-16T09:06:31;15.68;;;10.75;;
18838;SDS011;9548;56.920;14.804;2022-08-16T09:09:00;15.48;;;11.30;;
18838;SDS011;9548;56.920;14.804;2022-08-16T09:11:28;19.05;;;11.07;;
18838;SDS011;9548;56.920;14.804;2022-08-16T09:13:55;15.90;;;11.80;;
18838;SDS011;9548;56.920;14.804;2022-08-16T09:16:22;12.57;;;10.48;;
18838;SDS011;9548;56.920;14.804;2022-08-16T09:18:50;15.65;;;11.40;;
18838;SDS011;9548;56.920;14.804;2022-08-16T09:21:17;14.27;;;10.73;;
18838;SDS011;9548;56.920;14.804;2022-08-16T09:23:45;15.27;;;10.65;;
18838;SDS011;9548;56.920;14.804;2022-08-16T09:26:13;13.70;;;10.63;;
18838;SDS011;9548;56.920;14.804;2022-08-16T09:28:41;15.95;;;11.57;;
18838;SDS011;9548;56.920;14.804;2022-08-16T09:31:09;15.68;;;10.48;;
18838;SDS011;9548;56.920;14.804;2022-08-16T09:33:37;14.98;;;10.60;;
18838;SDS011;9548;56.920;14.804;2022-08-16T09:36:05;13.80;;;10.27;;
18838;SDS011;9548;56.920;14.804;2022-08-16T09:38:32;18.35;;;10.23;;
18838;SDS011;9548;56.920;14.804;2022-08-16T09:41:00;14.82;;;9.93;;
18838;SDS011;9548;56.920;14.804;2022-08-16T09:43:31;12.88;;;9.88;;
18838;SDS011;9548;56.920;14.804;2022-08-16T09:45:59;14.77;;;9.73;;
18838;SDS011;9548;56.920;14.804;2022-08-16T09:48:28;20.60;;;9.98;;
18838;SDS011;9548;56.920;14.804;2022-08-16T09:50:56;14.93;;;9.85;;
18838;SDS011;9548;56.920;14.804;2022-08-16T09:53:23;16.20;;;9.48;;
18838;SDS011;9548;56.920;14.804;2022-08-16T09:55:52;15.27;;;9.25;;
18838;SDS011;9548;56.920;14.804;2022-08-16T09:58:21;13.95;;;8.90;;
18838;SDS011;9548;56.920;14.804;2022-08-16T10:00:52;12.85;;;8.90;;
18838;SDS011;9548;56.920;14.804;2022-08-16T10:03:19;14.27;;;9.02;;
18838;SDS011;9548;56.920;14.804;2022-08-16T10:05:47;17.70;;;9.32;;
18838;SDS011;9548;56.920;14.804;2022-08-16T10:08:15;16.25;;;9.30;;
18838;SDS011;9548;56.920;14.804;2022-08-16T10:10:42;14.48;;;8.90;;
18838;SDS011;9548;56.920;14.804;2022-08-16T10:13:31;14.27;;;8.40;;
18838;SDS011;9548;56.920;14.804;2022-08-16T10:15:59;9.75;;;7.85;;
18838;SDS011;9548;56.920;14.804;2022-08-16T10:18:28;10.82;;;7.93;;
18838;SDS011;9548;56.920;14.804;2022-08-16T10:20:57;13.05;;;8.40;;
18838;SDS011;9548;56.920;14.804;2022-08-16T10:23:24;13.35;;;8.30;;
18838;SDS011;9548;56.920;14.804;2022-08-16T10:25:53;14.30;;;8.27;;
18838;SDS011;9548;56.920;14.804;2022-08-16T10:28:21;11.32;;;8.23;;
18838;SDS011;9548;56.920;14.804;2022-08-16T10:30:48;14.40;;;8.25;;
18838;SDS011;9548;56.920;14.804;2022-08-16T10:33:16;12.00;;;8.00;;
18838;SDS011;9548;56.920;14.804;2022-08-16T10:35:44;12.95;;;8.05;;
18838;SDS011;9548;56.920;14.804;2022-08-16T10:38:11;11.48;;;7.80;;
18838;SDS011;9548;56.920;14.804;2022-08-16T10:40:40;10.07;;;8.07;;
18838;SDS011;9548;56.920;14.804;2022-08-16T10:43:08;11.25;;;8.57;;
18838;SDS011;9548;56.920;14.804;2022-08-16T10:45:35;10.90;;;8.43;;
18838;SDS011;9548;56.920;14.804;2022-08-16T10:48:03;10.60;;;8.48;;
18838;SDS011;9548;56.920;14.804;2022-08-16T10:50:33;17.17;;;8.65;;
18838;SDS011;9548;56.920;14.804;2022-08-16T10:53:00;14.30;;;8.93;;
18838;SDS011;9548;56.920;14.804;2022-08-16T10:55:30;11.52;;;8.40;;
18838;SDS011;9548;56.920;14.804;2022-08-16T10:58:01;12.45;;;9.18;;
18838;SDS011;9548;56.920;14.804;2022-08-16T11:00:29;12.52;;;8.68;;
18838;SDS011;9548;56.920;14.804;2022-08-16T11:02:57;12.10;;;8.20;;
18838;SDS011;9548;56.920;14.804;2022-08-16T11:05:24;15.35;;;8.07;;
18838;SDS011;9548;56.920;14.804;2022-08-16T11:07:53;12.95;;;8.25;;
18838;SDS011;9548;56.920;14.804;2022-08-16T11:10:22;10.15;;;7.80;;
18838;SDS011;9548;56.920;14.804;2022-08-16T11:12:51;15.27;;;8.02;;
18838;SDS011;9548;56.920;14.804;2022-08-16T11:15:19;15.10;;;8.25;;
18838;SDS011;9548;56.920;14.804;2022-08-16T11:17:46;10.23;;;7.97;;
18838;SDS011;9548;56.920;14.804;2022-08-16T11:20:14;12.38;;;8.02;;
18838;SDS011;9548;56.920;14.804;2022-08-16T11:22:41;9.52;;;7.65;;
18838;SDS011;9548;56.920;14.804;2022-08-16T11:25:10;11.23;;;7.47;;
18838;SDS011;9548;56.920;14.804;2022-08-16T11:27:39;8.40;;;7.05;;
18838;SDS011;9548;56.920;14.804;2022-08-16T11:30:07;9.43;;;7.68;;
18838;SDS011;9548;56.920;14.804;2022-08-16T11:32:36;11.70;;;7.10;;
18838;SDS011;9548;56.920;14.804;2022-08-16T11:35:04;8.32;;;7.28;;
18838;SDS011;9548;56.920;14.804;2022-08-16T11:37:33;12.98;;;7.57;;
18838;SDS011;9548;56.920;14.804;2022-08-16T11:40:00;7.68;;;6.75;;
18838;SDS011;9548;56.920;14.804;2022-08-16T11:42:31;10.15;;;7.30;;
18838;SDS011;9548;56.920;14.804;2022-08-16T11:44:58;9.68;;;7.20;;
18838;SDS011;9548;56.920;14.804;2022-08-16T11:47:25;9.88;;;6.70;;
18838;SDS011;9548;56.920;14.804;2022-08-16T11:49:52;7.60;;;6.60;;
18838;SDS011;9548;56.920;14.804;2022-08-16T11:52:19;7.38;;;6.28;;
18838;SDS011;9548;56.920;14.804;2022-08-16T11:54:48;6.88;;;6.07;;
18838;SDS011;9548;56.920;14.804;2022-08-16T11:57:15;12.85;;;6.38;;
18838;SDS011;9548;56.920;14.804;2022-08-16T11:59:44;8.13;;;6.55;;
18838;SDS011;9548;56.920;14.804;2022-08-16T12:02:11;7.80;;;6.30;;
18838;SDS011;9548;56.920;14.804;2022-08-16T12:04:37;6.60;;;5.53;;
18838;SDS011;9548;56.920;14.804;2022-08-16T12:07:05;7.75;;;6.32;;
18838;SDS011;9548;56.920;14.804;2022-08-16T12:09:34;9.13;;;6.15;;
18838;SDS011;9548;56.920;14.804;2022-08-16T12:12:01;12.65;;;5.70;;
18838;SDS011;9548;56.920;14.804;2022-08-16T12:14:29;9.30;;;6.20;;
18838;SDS011;9548;56.920;14.804;2022-08-16T12:16:57;7.82;;;6.10;;
18838;SDS011;9548;56.920;14.804;2022-08-16T12:19:26;9.23;;;6.10;;
18838;SDS011;9548;56.920;14.804;2022-08-16T12:21:54;9.65;;;6.35;;
18838;SDS011;9548;56.920;14.804;2022-08-16T12:24:21;7.03;;;6.18;;
18838;SDS011;9548;56.920;14.804;2022-08-16T12:26:48;10.55;;;6.05;;
18838;SDS011;9548;56.920;14.804;2022-08-16T12:29:15;13.25;;;6.18;;
18838;SDS011;9548;56.920;14.804;2022-08-16T12:31:43;6.30;;;5.68;;
18838;SDS011;9548;56.920;14.804;2022-08-16T12:34:12;10.48;;;5.88;;
18838;SDS011;9548;56.920;14.804;2022-08-16T12:36:39;8.32;;;5.88;;
18838;SDS011;9548;56.920;14.804;2022-08-16T12:39:06;9.18;;;6.20;;
18838;SDS011;9548;56.920;14.804;2022-08-16T12:41:33;6.90;;;6.10;;
18838;SDS011;9548;56.920;14.804;2022-08-16T12:44:02;9.30;;;6.15;;
18838;SDS011;9548;56.920;14.804;2022-08-16T12:46:30;6.25;;;5.65;;
18838;SDS011;9548;56.920;14.804;2022-08-16T12:48:58;10.32;;;5.75;;
18838;SDS011;9548;56.920;14.804;2022-08-16T12:51:27;8.00;;;5.70;;
18838;SDS011;9548;56.920;14.804;2022-08-16T12:53:57;9.15;;;5.88;;
18838;SDS011;9548;56.920;14.804;2022-08-16T12:56:27;7.07;;;5.78;;
18838;SDS011;9548;56.920;14.804;2022-08-16T12:58:56;10.05;;;6.25;;
18838;SDS011;9548;56.920;14.804;2022-08-16T13:01:26;7.40;;;5.25;;
18838;SDS011;9548;56.920;14.804;2022-08-16T13:03:54;5.72;;;5.13;;
18838;SDS011;9548;56.920;14.804;2022-08-16T13:06:22;6.20;;;5.25;;
18838;SDS011;9548;56.920;14.804;2022-08-16T13:08:51;5.90;;;4.95;;
18838;SDS011;9548;56.920;14.804;2022-08-16T13:11:22;5.78;;;4.97;;
18838;SDS011;9548;56.920;14.804;2022-08-16T13:13:52;7.70;;;4.57;;
18838;SDS011;9548;56.920;14.804;2022-08-16T13:16:19;5.97;;;4.80;;
18838;SDS011;9548;56.920;14.804;2022-08-16T13:18:46;4.90;;;4.32;;
18838;SDS011;9548;56.920;14.804;2022-08-16T13:21:13;5.18;;;4.30;;
18838;SDS011;9548;56.920;14.804;2022-08-16T13:23:40;4.55;;;4.13;;
18838;SDS011;9548;56.920;14.804;2022-08-16T13:26:09;8.18;;;4.60;;
18838;SDS011;9548;56.920;14.804;2022-08-16T13:28:36;5.53;;;4.38;;
18838;SDS011;9548;56.920;14.804;2022-08-16T13:31:03;6.30;;;4.43;;
18838;SDS011;9548;56.920;14.804;2022-08-16T13:33:32;5.20;;;4.57;;
18838;SDS011;9548;56.920;14.804;2022-08-16T13:36:02;6.28;;;4.70;;
18838;SDS011;9548;56.920;14.804;2022-08-16T13:38:30;6.70;;;4.47;;
18838;SDS011;9548;56.920;14.804;2022-08-16T13:40:58;8.23;;;5.30;;
18838;SDS011;9548;56.920;14.804;2022-08-16T13:43:28;7.35;;;4.63;;
18838;SDS011;9548;56.920;14.804;2022-08-16T13:45:56;7.13;;;4.90;;
18838;SDS011;9548;56.920;14.804;2022-08-16T13:48:26;6.68;;;5.20;;
18838;SDS011;9548;56.920;14.804;2022-08-16T13:50:54;5.40;;;4.90;;
18838;SDS011;9548;56.920;14.804;2022-08-16T13:53:23;6.00;;;5.05;;
18838;SDS011;9548;56.920;14.804;2022-08-16T13:55:51;7.32;;;5.03;;
18838;SDS011;9548;56.920;14.804;2022-08-16T13:58:18;6.68;;;4.60;;
18838;SDS011;9548;56.920;14.804;2022-08-16T14:00:47;8.63;;;5.28;;
18838;SDS011;9548;56.920;14.804;2022-08-16T14:03:15;5.97;;;5.20;;
18838;SDS011;9548;56.920;14.804;2022-08-16T14:05:42;5.30;;;4.80;;
18838;SDS011;9548;56.920;14.804;2022-08-16T14:08:09;6.32;;;5.55;;
18838;SDS011;9548;56.920;14.804;2022-08-16T14:10:36;5.70;;;4.97;;
18838;SDS011;9548;56.920;14.804;2022-08-16T14:13:03;6.50;;;5.50;;
18838;SDS011;9548;56.920;14.804;2022-08-16T14:15:31;5.93;;;5.00;;
18838;SDS011;9548;56.920;14.804;2022-08-16T14:18:00;7.35;;;5.30;;
18838;SDS011;9548;56.920;14.804;2022-08-16T14:20:27;9.75;;;5.82;;
18838;SDS011;9548;56.920;14.804;2022-08-16T14:22:54;7.53;;;5.82;;
18838;SDS011;9548;56.920;14.804;2022-08-16T14:25:21;8.82;;;5.57;;
18838;SDS011;9548;56.920;14.804;2022-08-16T14:27:49;8.95;;;5.72;;
18838;SDS011;9548;56.920;14.804;2022-08-16T14:30:17;9.60;;;6.10;;
18838;SDS011;9548;56.920;14.804;2022-08-16T14:32:45;6.75;;;5.88;;
18838;SDS011;9548;56.920;14.804;2022-08-16T14:35:15;8.65;;;5.70;;
18838;SDS011;9548;56.920;14.804;2022-08-16T14:37:44;8.93;;;5.55;;